This is the latest recevied weather packets stored in our database for station/object N5VIS. If no packets are shown the sender has not sent any weather packets the latest 1 day(s).
| Time | Temp. | Humidity | Pressure | Rain* | Wind** | Luminosity | Snow |
|---|---|---|---|---|---|---|---|
| 1778014913 | 24.44° C | 79% | 1014.5 hPa | 0 mm | 1.79 m/s, 334° | - | - |
| 1778014610 | 24.44° C | 78% | 1014.4 hPa | 0 mm | 1.79 m/s, 339° | - | - |
| 1778014308 | 25° C | 78% | 1014.3 hPa | 0 mm | 0.45 m/s, 337° | - | - |
| 1778014005 | 25° C | 76% | 1014.5 hPa | 0 mm | 0.89 m/s, 350° | - | - |
| 1778013703 | 24.44° C | 78% | 1014.8 hPa | 0 mm | 0.89 m/s, 12° | - | - |
| 1778013400 | 25° C | 76% | 1014.7 hPa | 0 mm | 1.34 m/s, 324° | - | - |
| 1778013096 | 25° C | 75% | 1015 hPa | 0 mm | 1.79 m/s, 47° | - | - |
| 1778012792 | 25° C | 76% | 1014.9 hPa | 0 mm | 1.79 m/s, 330° | - | - |
| 1778012488 | 25.56° C | 75% | 1014.9 hPa | 0 mm | 0.45 m/s, 270° | - | - |
| 1778012185 | 24.44° C | 77% | 1014.9 hPa | 0 mm | 1.34 m/s, 298° | - | - |
| 1778011883 | 25° C | 76% | 1015 hPa | 0 mm | 1.34 m/s, 9° | - | - |
| 1778011581 | 24.44° C | 77% | 1015.1 hPa | 0 mm | 1.34 m/s, 332° | - | - |
| 1778011278 | 24.44° C | 76% | 1015.3 hPa | 0 mm | 2.24 m/s, 335° | - | - |
| 1778010974 | 25° C | 74% | 1015 hPa | 0 mm | 2.68 m/s, 322° | - | - |
| 1778010671 | 25.56° C | 74% | 1015.2 hPa | 0 mm | 1.34 m/s, 332° | - | - |
| 1778010368 | 25° C | 74% | 1015.1 hPa | 0 mm | 2.24 m/s, 338° | - | - |
| 1778010064 | 25.56° C | 75% | 1015.1 hPa | 0 mm | 2.24 m/s, 322° | - | - |
| 1778009761 | 24.44° C | 76% | 1015.4 hPa | 0 mm | 1.34 m/s, 343° | - | - |
| 1778009458 | 25° C | 76% | 1015.3 hPa | 0 mm | 0.89 m/s, 64° | - | - |
| 1778009157 | 24.44° C | 75% | 1015.4 hPa | 0 mm | 0.89 m/s, 19° | - | - |
| 1778008854 | 25° C | 75% | 1015.5 hPa | 0 mm | 1.79 m/s, 351° | - | - |
| 1778008552 | 24.44° C | 77% | 1015.6 hPa | 0 mm | 2.68 m/s, 339° | - | - |
| 1778008249 | 25° C | 75% | 1015.5 hPa | 0 mm | 3.13 m/s, 327° | - | - |
| 1778007944 | 23.89° C | 78% | 1015.7 hPa | 0 mm | 0.45 m/s, 10° | - | - |
| 1778007640 | 24.44° C | 76% | 1015.7 hPa | 0 mm | 2.68 m/s, 348° | - | - |
* Rain latest hour (hover to see other rain measurements)
** Current wind speed in m/s (hover to see current wind gust speed)